createdAt,value
2022-12-17T00:02:20.021Z,46.38
2022-12-17T00:05:37.614Z,50.97
2022-12-17T00:08:55.742Z,47.95
2022-12-17T00:12:13.293Z,44.33
2022-12-17T00:15:32.578Z,45.53
2022-12-17T00:18:53.240Z,49.45
2022-12-17T00:22:14.852Z,45.95
2022-12-17T00:25:32.133Z,52.92
2022-12-17T00:28:50.104Z,46.47
2022-12-17T00:32:07.618Z,41.17
2022-12-17T00:35:28.512Z,38.92
2022-12-17T00:38:48.868Z,48.40
2022-12-17T00:42:07.732Z,33.47
2022-12-17T00:45:25.213Z,59.58
2022-12-17T00:48:51.515Z,48.25
2022-12-17T00:52:12.148Z,42.35
2022-12-17T00:55:30.236Z,39.65
2022-12-17T00:58:47.603Z,47.15
2022-12-17T01:02:06.626Z,46.53
2022-12-17T01:05:24.091Z,45.42
2022-12-17T01:08:47.244Z,36.08
2022-12-17T01:12:04.529Z,44.17
2022-12-17T01:15:23.167Z,40.20
2022-12-17T01:18:41.437Z,48.78
2022-12-17T01:21:59.917Z,47.58
2022-12-17T01:25:20.457Z,34.95
2022-12-17T01:28:38.444Z,46.55
2022-12-17T01:31:55.973Z,32.80
2022-12-17T01:35:14.011Z,35.97
2022-12-17T01:38:32.737Z,43.92
2022-12-17T01:41:53.106Z,41.65
2022-12-17T01:45:12.634Z,48.25
2022-12-17T01:48:32.378Z,33.28
2022-12-17T01:51:51.174Z,38.72
2022-12-17T01:55:09.144Z,38.72
2022-12-17T01:58:29.583Z,34.15
2022-12-17T02:01:49.488Z,39.05
2022-12-17T02:05:06.927Z,19.92
2022-12-17T02:08:29.907Z,36.38
2022-12-17T02:11:51.137Z,28.98
2022-12-17T02:15:13.292Z,26.98
2022-12-17T02:18:33.599Z,35.63
2022-12-17T02:21:54.806Z,36.58
2022-12-17T02:25:18.158Z,32.53
2022-12-17T02:28:39.556Z,37.47
2022-12-17T02:31:58.296Z,36.47
2022-12-17T02:35:16.905Z,34.95
2022-12-17T02:38:35.206Z,16.23
2022-12-17T02:41:55.905Z,26.38
2022-12-17T02:45:15.933Z,31.20
2022-12-17T02:48:36.413Z,31.88
2022-12-17T02:51:59.197Z,25.88
2022-12-17T02:55:17.002Z,31.02
2022-12-17T02:58:46.353Z,24.67
2022-12-17T03:02:08.213Z,26.38
2022-12-17T03:05:44.421Z,23.70
2022-12-17T03:09:03.456Z,27.65
2022-12-17T03:12:21.066Z,30.25
2022-12-17T03:15:38.690Z,31.45
2022-12-17T03:19:04.295Z,28.00
2022-12-17T03:22:25.220Z,31.40
2022-12-17T03:25:53.235Z,27.88
2022-12-17T03:29:10.989Z,26.55
2022-12-17T03:32:28.306Z,28.88
2022-12-17T03:35:48.845Z,24.98
2022-12-17T03:39:07.151Z,27.23
2022-12-17T03:42:24.925Z,35.75
2022-12-17T03:45:42.302Z,28.23
2022-12-17T03:49:02.609Z,31.27
2022-12-17T03:52:22.516Z,26.42
2022-12-17T03:55:40.247Z,28.02
2022-12-17T03:58:57.585Z,32.00
2022-12-17T04:02:15.501Z,36.30
2022-12-17T04:05:33.036Z,28.55
2022-12-17T04:08:53.631Z,31.98
2022-12-17T04:12:11.012Z,30.75
2022-12-17T04:15:29.102Z,37.58
2022-12-17T04:18:46.353Z,31.75
2022-12-17T04:22:04.084Z,31.10
2022-12-17T04:25:24.334Z,33.13
2022-12-17T04:28:42.331Z,34.17
2022-12-17T04:31:59.684Z,27.75
2022-12-17T04:35:19.812Z,31.98
2022-12-17T04:38:39.029Z,25.33
2022-12-17T04:41:59.546Z,34.45
2022-12-17T04:45:16.833Z,38.67
2022-12-17T04:48:34.598Z,33.75
2022-12-17T04:51:51.796Z,31.25
2022-12-17T04:55:09.834Z,33.53
2022-12-17T04:58:29.852Z,24.65
2022-12-17T05:01:47.535Z,30.15
2022-12-17T05:05:04.825Z,27.58
2022-12-17T05:08:22.605Z,29.50
2022-12-17T05:11:39.910Z,22.75
2022-12-17T05:15:00.678Z,22.63
2022-12-17T05:18:20.553Z,19.83
2022-12-17T05:21:38.376Z,18.42
2022-12-17T05:24:55.904Z,25.67
2022-12-17T05:28:13.552Z,28.15
2022-12-17T05:31:48.365Z,28.70
2022-12-17T05:35:06.071Z,22.13
2022-12-17T05:38:30.518Z,23.30
2022-12-17T05:41:48.351Z,21.55
2022-12-17T05:45:05.596Z,31.58
2022-12-17T05:48:34.422Z,27.38
2022-12-17T05:51:51.684Z,14.52
2022-12-17T05:55:09.722Z,18.25
2022-12-17T05:58:27.017Z,21.65
2022-12-17T06:01:44.984Z,25.25
2022-12-17T06:05:05.106Z,27.23
2022-12-17T06:08:25.407Z,24.65
2022-12-17T06:11:44.715Z,29.60
2022-12-17T06:15:02.335Z,18.90
2022-12-17T06:18:19.714Z,25.65
2022-12-17T06:21:40.372Z,17.90
2022-12-17T06:24:57.597Z,15.00
2022-12-17T06:28:16.095Z,23.95
2022-12-17T06:31:34.861Z,14.63
2022-12-17T06:34:52.625Z,28.45
2022-12-17T06:38:16.418Z,18.20
2022-12-17T06:41:33.967Z,26.95
2022-12-17T06:44:52.253Z,22.02
2022-12-17T06:48:16.751Z,19.02
2022-12-17T06:51:33.969Z,14.45
2022-12-17T06:54:55.988Z,18.65
2022-12-17T06:58:13.861Z,21.25
2022-12-17T07:01:31.557Z,25.45
2022-12-17T07:04:49.718Z,14.93
2022-12-17T07:08:12.188Z,19.55
2022-12-17T07:11:31.945Z,23.58
2022-12-17T07:14:49.813Z,19.13
2022-12-17T07:18:10.572Z,23.45
2022-12-17T07:21:30.179Z,26.48
2022-12-17T07:24:47.513Z,20.30
2022-12-17T07:28:12.117Z,24.80
2022-12-17T07:31:29.487Z,19.45
2022-12-17T07:34:48.656Z,22.88
2022-12-17T07:38:13.090Z,24.52
2022-12-17T07:41:31.740Z,21.15
2022-12-17T07:44:51.762Z,18.02
2022-12-17T07:48:11.986Z,18.50
2022-12-17T07:51:29.598Z,23.00
2022-12-17T07:54:47.488Z,27.63
2022-12-17T07:58:12.677Z,18.35
2022-12-17T08:01:33.378Z,23.80
2022-12-17T08:04:52.340Z,21.50
2022-12-17T08:08:10.061Z,18.20
2022-12-17T08:11:27.284Z,29.10
2022-12-17T08:14:48.209Z,27.40
2022-12-17T08:18:08.227Z,24.60
2022-12-17T08:21:27.089Z,17.88
2022-12-17T08:24:47.860Z,18.40
2022-12-17T08:28:15.779Z,22.83
2022-12-17T08:31:44.170Z,16.30
2022-12-17T08:35:04.494Z,19.65
2022-12-17T08:38:21.856Z,32.03
2022-12-17T08:45:19.584Z,12.82
2022-12-17T08:48:38.602Z,18.13
2022-12-17T08:51:58.534Z,25.30
2022-12-17T08:55:16.220Z,13.98
2022-12-17T08:58:33.449Z,24.65
2022-12-17T09:01:51.241Z,23.58
2022-12-17T09:05:08.659Z,19.65
2022-12-17T09:08:29.045Z,26.52
2022-12-17T09:11:46.353Z,27.92
2022-12-17T09:15:03.970Z,17.83
2022-12-17T09:18:21.347Z,28.63
2022-12-17T09:21:39.039Z,28.25
2022-12-17T09:25:02.621Z,23.42
2022-12-17T09:28:20.315Z,20.85
2022-12-17T09:31:37.923Z,19.92
2022-12-17T09:34:55.714Z,24.38
2022-12-17T09:38:13.043Z,14.40
2022-12-17T09:41:42.477Z,17.67
2022-12-17T09:45:03.850Z,24.38
2022-12-17T09:48:30.877Z,21.38
2022-12-17T09:51:50.701Z,24.40
2022-12-17T09:55:08.950Z,23.08
2022-12-17T09:58:35.018Z,28.67
2022-12-17T10:01:56.207Z,28.77
2022-12-17T10:05:14.169Z,26.88
2022-12-17T10:08:34.027Z,20.35
2022-12-17T10:11:51.336Z,22.23
2022-12-17T10:15:11.724Z,26.77
2022-12-17T10:18:30.107Z,31.58
2022-12-17T10:21:49.737Z,27.77
2022-12-17T10:25:07.693Z,36.05
2022-12-17T10:28:26.830Z,35.08
2022-12-17T10:31:46.876Z,27.15
2022-12-17T10:35:10.661Z,21.95
2022-12-17T10:38:28.927Z,32.30
2022-12-17T10:41:49.941Z,35.00
2022-12-17T10:45:07.228Z,30.75
2022-12-17T10:48:36.234Z,25.10
2022-12-17T10:51:53.533Z,17.45
2022-12-17T10:55:15.777Z,25.75
2022-12-17T10:58:37.417Z,22.50
2022-12-17T11:01:57.179Z,35.38
2022-12-17T11:05:18.349Z,27.08
2022-12-17T11:08:39.149Z,24.67
2022-12-17T11:11:57.391Z,27.77
2022-12-17T11:15:19.826Z,27.02
2022-12-17T11:18:38.653Z,34.60
2022-12-17T11:22:02.351Z,23.00
2022-12-17T11:25:23.037Z,32.85
2022-12-17T11:28:42.556Z,26.25
2022-12-17T11:32:11.183Z,30.85
2022-12-17T11:35:31.945Z,33.92
2022-12-17T11:38:53.485Z,25.25
2022-12-17T11:42:19.121Z,25.73
2022-12-17T11:45:39.909Z,31.40
2022-12-17T11:49:01.358Z,32.58
2022-12-17T11:52:23.332Z,25.27
2022-12-17T11:55:47.350Z,34.00
2022-12-17T11:59:05.930Z,31.60
2022-12-17T12:02:29.663Z,33.75
2022-12-17T12:05:56.266Z,14.05
2022-12-17T12:09:24.025Z,42.28
2022-12-17T12:12:55.008Z,22.67
2022-12-17T12:16:17.351Z,34.03
2022-12-17T12:19:39.830Z,28.17
2022-12-17T12:26:19.630Z,33.90
2022-12-17T12:29:43.481Z,40.85
2022-12-17T12:33:09.779Z,36.83
2022-12-17T12:36:31.390Z,37.40
2022-12-17T12:39:51.761Z,32.53
2022-12-17T12:43:11.655Z,25.63
2022-12-17T12:46:32.407Z,29.70
2022-12-17T12:49:53.746Z,35.95
2022-12-17T12:53:12.281Z,35.05
2022-12-17T12:56:43.527Z,36.95
2022-12-17T13:00:03.580Z,27.20
2022-12-17T13:03:33.795Z,38.58
2022-12-17T13:06:49.000Z,36.95
2022-12-17T13:09:55.371Z,32.90
2022-12-17T13:13:03.074Z,35.97
2022-12-17T13:16:27.025Z,39.15
2022-12-17T13:19:41.636Z,38.78
2022-12-17T13:22:54.028Z,44.50
2022-12-17T13:26:14.088Z,42.80
2022-12-17T13:29:27.592Z,36.42
2022-12-17T13:32:37.053Z,37.33
2022-12-17T13:35:50.383Z,37.90
2022-12-17T13:42:00.234Z,41.63
2022-12-17T13:45:05.618Z,36.60
2022-12-17T13:48:21.380Z,44.08
2022-12-17T13:51:30.178Z,35.85
2022-12-17T13:54:35.757Z,39.55
2022-12-17T13:57:40.761Z,39.67
2022-12-17T14:00:47.069Z,45.50
2022-12-17T14:04:08.201Z,36.25
2022-12-17T14:07:16.509Z,30.67
2022-12-17T14:10:22.492Z,38.00
2022-12-17T14:13:25.137Z,42.30
2022-12-17T14:16:50.574Z,36.35
2022-12-17T14:20:05.357Z,38.22
2022-12-17T14:23:17.136Z,44.17
2022-12-17T14:26:22.554Z,36.58
2022-12-17T14:29:28.390Z,39.05
2022-12-17T14:32:37.362Z,39.75
2022-12-17T14:35:42.620Z,38.20
2022-12-17T14:38:57.590Z,39.17
2022-12-17T14:42:23.378Z,44.08
2022-12-17T14:45:30.606Z,15.07
2022-12-17T14:48:47.708Z,33.28
2022-12-17T14:51:54.528Z,40.13
2022-12-17T14:55:01.952Z,34.10
2022-12-17T14:58:11.636Z,41.78
2022-12-17T15:01:17.922Z,43.40
2022-12-17T15:04:38.467Z,25.33
2022-12-17T15:07:57.030Z,30.90
2022-12-17T15:11:17.363Z,31.27
2022-12-17T15:14:51.908Z,40.88
2022-12-17T15:18:19.620Z,41.70
2022-12-17T15:21:31.048Z,37.65
2022-12-17T15:24:44.774Z,39.67
2022-12-17T15:28:27.236Z,41.35
2022-12-17T15:31:36.047Z,40.92
2022-12-17T15:34:47.158Z,33.33
2022-12-17T15:37:57.146Z,39.85
2022-12-17T15:41:24.206Z,45.33
2022-12-17T15:44:33.197Z,46.38
2022-12-17T15:47:38.244Z,46.20
2022-12-17T15:50:44.301Z,51.75
2022-12-17T15:53:49.649Z,34.70
2022-12-17T15:56:56.074Z,34.10
2022-12-17T16:00:04.149Z,31.23
2022-12-17T16:03:10.249Z,24.35
2022-12-17T16:06:17.252Z,55.50
2022-12-17T16:09:24.611Z,36.13
2022-12-17T16:12:32.114Z,44.85
2022-12-17T16:15:42.271Z,28.77
2022-12-17T16:18:47.366Z,44.47
2022-12-17T16:21:57.977Z,39.38
2022-12-17T16:25:02.865Z,36.25
2022-12-17T16:28:12.109Z,45.30
2022-12-17T16:31:20.010Z,52.95
2022-12-17T16:34:25.761Z,41.22
2022-12-17T16:37:31.821Z,33.97
2022-12-17T16:40:38.168Z,21.98
2022-12-17T16:43:43.469Z,52.55
2022-12-17T16:46:52.442Z,32.92
2022-12-17T16:49:57.697Z,57.17
2022-12-17T16:53:04.722Z,47.67
2022-12-17T16:56:10.578Z,45.22
2022-12-17T16:59:17.261Z,38.92
2022-12-17T17:02:25.457Z,36.50
2022-12-17T17:05:34.228Z,60.08
2022-12-17T17:08:41.240Z,51.95
2022-12-17T17:11:51.827Z,52.90
2022-12-17T17:15:02.867Z,53.60
2022-12-17T17:18:11.771Z,50.92
2022-12-17T17:21:38.847Z,59.47
2022-12-17T17:24:46.089Z,38.50
2022-12-17T17:27:51.546Z,60.65
2022-12-17T17:31:01.441Z,62.13
2022-12-17T17:34:10.939Z,50.25
2022-12-17T17:37:17.849Z,46.85
2022-12-17T17:40:23.581Z,46.72
2022-12-17T17:43:32.845Z,53.75
2022-12-17T17:46:42.180Z,53.17
2022-12-17T17:50:02.715Z,55.90
2022-12-17T17:53:08.675Z,41.90
2022-12-17T17:56:16.325Z,56.25
2022-12-17T17:59:29.559Z,49.97
2022-12-17T18:02:38.848Z,62.17
2022-12-17T18:05:47.205Z,60.42
2022-12-17T18:08:54.472Z,38.72
2022-12-17T18:12:19.330Z,49.17
2022-12-17T18:15:23.324Z,35.20
2022-12-17T18:18:28.536Z,35.85
2022-12-17T18:21:40.877Z,38.83
2022-12-17T18:24:46.867Z,64.22
2022-12-17T18:27:56.508Z,54.42
2022-12-17T18:31:01.542Z,60.30
2022-12-17T18:34:07.639Z,62.90
2022-12-17T18:37:16.811Z,60.58
2022-12-17T18:40:28.779Z,59.92
2022-12-17T18:43:33.822Z,61.15
2022-12-17T18:49:45.142Z,37.30
2022-12-17T18:52:53.780Z,57.22
2022-12-17T18:56:00.841Z,52.30
2022-12-17T18:59:08.698Z,39.72
2022-12-17T19:02:14.229Z,69.63
2022-12-17T19:05:21.212Z,54.50
2022-12-17T19:08:28.847Z,48.97
2022-12-17T19:11:43.313Z,61.20
2022-12-17T19:14:48.493Z,62.97
2022-12-17T19:17:53.944Z,64.07
2022-12-17T19:20:59.789Z,63.38
2022-12-17T19:24:09.699Z,64.28
2022-12-17T19:27:14.595Z,58.00
2022-12-17T19:30:20.289Z,50.55
2022-12-17T19:33:25.530Z,53.05
2022-12-17T19:36:31.639Z,61.60
2022-12-17T19:39:39.232Z,51.00
2022-12-17T19:42:44.971Z,55.65
2022-12-17T19:45:51.245Z,57.28
2022-12-17T19:49:02.042Z,35.65
2022-12-17T19:52:09.688Z,30.27
2022-12-17T19:55:18.053Z,51.03
2022-12-17T20:08:58.861Z,52.78
2022-12-17T20:12:06.913Z,50.03
2022-12-17T20:15:12.943Z,26.98
2022-12-17T20:18:17.812Z,25.95
2022-12-17T20:21:25.638Z,47.28
2022-12-17T20:24:32.134Z,29.80
2022-12-17T20:27:44.280Z,45.47
2022-12-17T20:30:50.399Z,46.65
2022-12-17T20:33:56.641Z,39.25
2022-12-17T20:37:02.164Z,39.47
2022-12-17T20:40:08.645Z,45.88
2022-12-17T20:43:16.640Z,38.60
2022-12-17T20:46:25.499Z,50.85
2022-12-17T20:49:30.967Z,36.05
2022-12-17T20:52:37.330Z,34.75
2022-12-17T20:55:42.577Z,28.15
2022-12-17T20:58:54.919Z,36.33
2022-12-17T21:02:01.649Z,51.25
2022-12-17T21:05:11.637Z,55.97
2022-12-17T21:08:17.009Z,44.60
2022-12-17T21:11:25.941Z,47.70
2022-12-17T21:14:35.906Z,40.78
2022-12-17T21:17:42.087Z,43.95
2022-12-17T21:20:58.360Z,39.92
2022-12-17T21:24:23.408Z,27.42
2022-12-17T21:27:31.900Z,32.55
2022-12-17T21:30:41.715Z,49.03
2022-12-17T21:33:52.017Z,32.50
2022-12-17T21:36:57.730Z,42.78
2022-12-17T21:40:04.528Z,46.42
2022-12-17T21:43:09.658Z,30.45
2022-12-17T21:46:19.146Z,36.33
2022-12-17T21:49:24.516Z,39.65
2022-12-17T21:52:30.690Z,51.67
2022-12-17T21:55:36.006Z,27.92
2022-12-17T21:58:43.690Z,44.83
2022-12-17T22:01:58.680Z,32.10
2022-12-17T22:05:07.964Z,41.92
2022-12-17T22:08:18.748Z,36.30
2022-12-17T22:11:25.840Z,54.85
2022-12-17T22:14:33.553Z,26.13
2022-12-17T22:17:46.680Z,25.98
2022-12-17T22:21:01.433Z,32.90
2022-12-17T22:24:08.703Z,35.40
2022-12-17T22:27:13.730Z,38.70
2022-12-17T22:30:33.537Z,47.28
2022-12-17T22:34:18.877Z,22.70
2022-12-17T22:41:18.636Z,27.33
2022-12-17T22:44:29.190Z,39.97
2022-12-17T22:44:48.776Z,30.20
2022-12-17T22:47:30.523Z,37.42
2022-12-17T22:50:48.229Z,40.85
2022-12-17T22:54:08.690Z,21.27
2022-12-17T22:57:33.565Z,39.17
2022-12-17T23:00:39.907Z,31.58
2022-12-17T23:03:45.800Z,36.08
2022-12-17T23:06:51.282Z,30.42
2022-12-17T23:09:59.839Z,31.42
2022-12-17T23:13:05.927Z,35.45
2022-12-17T23:16:13.500Z,39.00
2022-12-17T23:19:19.582Z,23.52
2022-12-17T23:22:25.152Z,26.13
2022-12-17T23:25:34.497Z,45.70
2022-12-17T23:28:45.024Z,40.67
2022-12-17T23:31:51.988Z,27.33
2022-12-17T23:35:00.131Z,33.20
2022-12-17T23:38:06.965Z,41.30
2022-12-17T23:41:17.102Z,28.35
2022-12-17T23:44:22.320Z,45.55
2022-12-17T23:47:27.942Z,25.67
2022-12-17T23:50:33.332Z,31.95
2022-12-17T23:53:40.268Z,39.55
2022-12-17T23:56:48.180Z,34.53
2022-12-17T23:59:56.184Z,34.85
